Time;durP1;ratioP1;P1;durP2;ratioP2;P2;SDS_P1;SDS_P2;PMS_P1;PMS_P2;Temp;Humidity;BMP_temperature;BMP_pressure;BME280_temperature;BME280_humidity;BME280_pressure;Samples;Min_cycle;Max_cycle;Signal;HPM_P1;HPM_P2
2023/12/13 00:00:53;;;;;;;;;;;7.90;99.90;;;;;;5109746;28;19942;-32
2023/12/13 00:03:19;;;;;;;;;;;7.90;99.90;;;;;;5109645;28;19936;-31
2023/12/13 00:05:47;;;;;;;;;;;7.90;99.90;;;;;;5132259;28;19943;-32
2023/12/13 00:08:14;;;;;;;;;;;7.90;99.90;;;;;;5131883;28;19969;-32
2023/12/13 00:10:41;;;;;;;;;;;7.90;99.90;;;;;;5113381;28;19994;-32
2023/12/13 00:13:07;;;;;;;;;;;7.90;99.90;;;;;;5110859;28;20042;-32
2023/12/13 00:15:34;;;;;;;;;;;7.90;99.90;;;;;;5106332;28;19937;-32
2023/12/13 00:18:01;;;;;;;;;;;8.00;99.90;;;;;;5131133;28;20008;-31
2023/12/13 00:20:27;;;;;;;;;;;8.00;99.90;;;;;;5127452;28;20399;-31
2023/12/13 00:22:55;;;;;;;;;;;8.00;99.90;;;;;;5129631;27;20015;-32
2023/12/13 00:25:22;;;;;;;;;;;8.00;99.90;;;;;;5126911;27;19938;-30
2023/12/13 00:27:51;;;;;;;;;;;7.90;99.90;;;;;;5109705;27;20007;-31
2023/12/13 00:30:18;;;;;;;;;;;8.00;99.90;;;;;;5123375;27;19973;-32
2023/12/13 00:32:44;;;;;;;;;;;8.00;99.90;;;;;;5113053;27;19938;-32
2023/12/13 00:35:11;;;;;;;;;;;8.00;99.90;;;;;;5116830;27;19962;-32
2023/12/13 00:37:38;;;;;;;;;;;8.00;99.90;;;;;;5112878;27;19936;-31
2023/12/13 00:40:07;;;;;;;;;;;8.00;99.90;;;;;;5112301;27;19990;-32
2023/12/13 00:42:33;;;;;;;;;;;8.00;99.90;;;;;;5136348;27;19941;-32
2023/12/13 00:45:00;;;;;;;;;;;8.00;99.90;;;;;;5117056;27;19938;-32
2023/12/13 00:47:27;;;;;;;;;;;8.00;99.90;;;;;;5111622;27;20497;-32
2023/12/13 00:49:54;;;;;;;;;;;8.00;99.90;;;;;;5112764;27;19989;-32
2023/12/13 00:52:20;;;;;;;;;;;7.90;99.90;;;;;;5115760;27;19937;-31
2023/12/13 00:54:47;;;;;;;;;;;8.00;99.90;;;;;;5134691;27;19965;-32
2023/12/13 00:57:15;;;;;;;;;;;8.00;99.90;;;;;;5134634;27;19938;-31
2023/12/13 00:59:42;;;;;;;;;;;7.90;99.90;;;;;;5133839;27;20294;-31
2023/12/13 01:02:08;;;;;;;;;;;8.00;99.90;;;;;;5133433;27;19947;-31
2023/12/13 01:04:38;;;;;;;;;;;7.90;99.90;;;;;;5111465;27;19938;-31
2023/12/13 01:07:04;;;;;;;;;;;7.90;99.90;;;;;;5104768;27;19923;-32
2023/12/13 01:09:31;;;;;;;;;;;7.90;99.90;;;;;;5111522;27;20550;-32
2023/12/13 01:11:57;;;;;;;;;;;7.90;99.90;;;;;;5117313;27;19938;-32
2023/12/13 01:14:25;;;;;;;;;;;8.00;99.90;;;;;;5134539;27;19943;-31
2023/12/13 01:16:52;;;;;;;;;;;7.90;99.90;;;;;;5116859;27;19997;-31
2023/12/13 01:19:19;;;;;;;;;;;7.90;99.90;;;;;;5116339;27;19957;-31
2023/12/13 01:21:46;;;;;;;;;;;7.90;99.90;;;;;;5134587;27;20381;-32
2023/12/13 01:24:12;;;;;;;;;;;7.90;99.90;;;;;;5102338;27;19989;-32
2023/12/13 01:26:39;;;;;;;;;;;7.90;99.90;;;;;;5115850;27;19923;-32
2023/12/13 01:29:06;;;;;;;;;;;7.90;99.90;;;;;;5116055;27;20442;-31
2023/12/13 01:31:34;;;;;;;;;;;8.00;99.90;;;;;;5113249;27;19979;-32
2023/12/13 01:34:01;;;;;;;;;;;7.90;99.90;;;;;;5115235;27;19955;-31
2023/12/13 01:36:28;;;;;;;;;;;7.90;99.90;;;;;;5134527;27;19940;-32
2023/12/13 01:38:55;;;;;;;;;;;7.90;99.90;;;;;;5114453;27;19980;-31
2023/12/13 01:41:22;;;;;;;;;;;7.90;99.90;;;;;;5109986;27;20375;-32
2023/12/13 01:43:48;;;;;;;;;;;7.90;99.90;;;;;;5116224;27;19942;-32
2023/12/13 01:46:16;;;;;;;;;;;7.90;99.90;;;;;;5113062;27;20024;-32
2023/12/13 01:48:44;;;;;;;;;;;7.90;99.90;;;;;;5114299;27;19940;-32
2023/12/13 01:51:11;;;;;;;;;;;7.90;99.90;;;;;;5115157;27;19935;-31
2023/12/13 01:53:37;;;;;;;;;;;7.90;99.90;;;;;;5116157;27;19984;-32
2023/12/13 01:56:04;;;;;;;;;;;7.90;99.90;;;;;;5104043;28;19993;-33
2023/12/13 01:58:31;;;;;;;;;;;7.90;99.90;;;;;;5103393;27;19934;-32
2023/12/13 02:00:58;;;;;;;;;;;7.90;99.90;;;;;;5108293;28;19938;-32
2023/12/13 02:03:25;;;;;;;;;;;7.90;99.90;;;;;;5129655;27;19955;-31
2023/12/13 02:05:53;;;;;;;;;;;7.90;99.90;;;;;;5114546;27;19939;-32
2023/12/13 02:08:20;;;;;;;;;;;7.90;99.90;;;;;;5116031;27;19939;-32
2023/12/13 02:10:47;;;;;;;;;;;7.90;99.90;;;;;;5115381;27;19944;-33
2023/12/13 02:13:14;;;;;;;;;;;7.90;99.90;;;;;;5109569;28;19993;-32
2023/12/13 02:15:40;;;;;;;;;;;7.90;99.90;;;;;;5120802;27;20362;-31
2023/12/13 02:18:08;;;;;;;;;;;7.90;99.90;;;;;;5111329;27;19934;-32
2023/12/13 02:20:35;;;;;;;;;;;7.90;99.90;;;;;;5126332;27;19943;-32
2023/12/13 02:23:03;;;;;;;;;;;7.90;99.90;;;;;;5133069;27;20027;-32
2023/12/13 02:25:30;;;;;;;;;;;7.90;99.90;;;;;;5115722;27;19973;-33
2023/12/13 02:27:57;;;;;;;;;;;7.90;99.90;;;;;;5109846;27;20046;-32
2023/12/13 02:30:23;;;;;;;;;;;7.90;99.90;;;;;;5133262;27;19988;-31
2023/12/13 02:32:50;;;;;;;;;;;7.90;99.90;;;;;;5114508;27;19946;-33
2023/12/13 02:35:17;;;;;;;;;;;7.90;99.90;;;;;;5112524;27;19942;-32
2023/12/13 02:37:45;;;;;;;;;;;7.90;99.90;;;;;;5113682;27;19975;-32
2023/12/13 02:40:14;;;;;;;;;;;7.90;99.90;;;;;;5114677;27;19935;-31
2023/12/13 02:42:40;;;;;;;;;;;7.90;99.90;;;;;;5133198;27;19949;-31
2023/12/13 02:45:09;;;;;;;;;;;7.90;99.90;;;;;;5108261;27;19939;-30
2023/12/13 02:47:38;;;;;;;;;;;7.90;99.90;;;;;;5130346;27;19927;-32
2023/12/13 02:50:06;;;;;;;;;;;7.90;99.90;;;;;;5115159;27;19976;-31
2023/12/13 02:52:32;;;;;;;;;;;7.90;99.90;;;;;;5114356;27;20022;-32
2023/12/13 02:54:59;;;;;;;;;;;7.90;99.90;;;;;;5128843;27;19937;-31
2023/12/13 02:57:27;;;;;;;;;;;7.90;99.90;;;;;;5115182;27;19999;-31
2023/12/13 02:59:54;;;;;;;;;;;7.90;99.90;;;;;;5133158;27;19993;-31
2023/12/13 03:02:20;;;;;;;;;;;7.90;99.90;;;;;;5114085;27;19944;-32
2023/12/13 03:04:47;;;;;;;;;;;7.90;99.90;;;;;;5112764;27;19959;-32
2023/12/13 03:07:13;;;;;;;;;;;7.90;99.90;;;;;;5113940;27;19951;-31
2023/12/13 03:09:40;;;;;;;;;;;7.90;99.90;;;;;;5114637;27;19942;-31
2023/12/13 03:12:07;;;;;;;;;;;7.90;99.90;;;;;;5112799;27;20001;-32
2023/12/13 03:14:35;;;;;;;;;;;7.90;99.90;;;;;;5132516;27;19942;-30
2023/12/13 03:17:02;;;;;;;;;;;7.90;99.90;;;;;;5114100;27;19935;-32
2023/12/13 03:19:28;;;;;;;;;;;7.90;99.90;;;;;;5114210;27;19939;-31
2023/12/13 03:21:55;;;;;;;;;;;7.90;99.90;;;;;;5114285;28;19994;-32
2023/12/13 03:24:21;;;;;;;;;;;7.90;99.90;;;;;;5132608;27;19942;-31
2023/12/13 03:26:48;;;;;;;;;;;7.90;99.90;;;;;;5111052;28;19947;-32
2023/12/13 03:29:15;;;;;;;;;;;7.90;99.90;;;;;;5114109;28;19940;-31
2023/12/13 03:31:43;;;;;;;;;;;7.90;99.90;;;;;;5132627;28;19963;-32
2023/12/13 03:34:09;;;;;;;;;;;7.90;99.90;;;;;;5113834;28;19988;-31
2023/12/13 03:36:36;;;;;;;;;;;7.90;99.90;;;;;;5132713;28;20007;-30
2023/12/13 03:39:03;;;;;;;;;;;7.90;99.90;;;;;;5115160;28;19989;-32
2023/12/13 03:41:29;;;;;;;;;;;7.90;99.90;;;;;;5131633;28;19946;-32
2023/12/13 03:43:56;;;;;;;;;;;7.80;99.90;;;;;;5131460;28;20342;-31
2023/12/13 03:46:23;;;;;;;;;;;7.80;99.90;;;;;;5113885;28;19987;-32
2023/12/13 03:48:51;;;;;;;;;;;7.90;99.90;;;;;;5132720;28;20425;-31
2023/12/13 03:51:18;;;;;;;;;;;7.90;99.90;;;;;;5114182;28;20407;-32
2023/12/13 03:53:44;;;;;;;;;;;7.90;99.90;;;;;;5115658;28;19983;-32
2023/12/13 03:56:11;;;;;;;;;;;7.90;99.90;;;;;;5102549;28;20002;-32
2023/12/13 03:58:38;;;;;;;;;;;7.80;99.90;;;;;;5123862;27;20324;-31
2023/12/13 04:01:05;;;;;;;;;;;7.90;99.90;;;;;;5129921;27;20450;-32
2023/12/13 04:03:33;;;;;;;;;;;7.90;99.90;;;;;;5113380;28;20268;-31
2023/12/13 04:06:01;;;;;;;;;;;7.90;99.90;;;;;;5135391;27;20369;-31
2023/12/13 04:08:28;;;;;;;;;;;7.90;99.90;;;;;;5135237;27;19950;-31
2023/12/13 04:10:54;;;;;;;;;;;7.90;99.90;;;;;;5127783;27;19940;-32
2023/12/13 04:13:21;;;;;;;;;;;7.90;99.90;;;;;;5129656;27;19962;-31
2023/12/13 04:15:48;;;;;;;;;;;7.90;99.90;;;;;;5117237;27;19996;-32
2023/12/13 04:18:14;;;;;;;;;;;8.00;99.90;;;;;;5117677;27;19983;-32
2023/12/13 04:20:41;;;;;;;;;;;7.90;99.90;;;;;;5116623;27;20468;-31
2023/12/13 04:23:09;;;;;;;;;;;7.90;99.90;;;;;;5116952;27;19945;-31
2023/12/13 04:25:37;;;;;;;;;;;7.90;99.90;;;;;;5133501;27;20276;-32
2023/12/13 04:28:04;;;;;;;;;;;7.90;99.90;;;;;;5133742;27;20050;-31
2023/12/13 04:30:31;;;;;;;;;;;8.00;99.90;;;;;;5131403;27;20461;-31
2023/12/13 04:32:58;;;;;;;;;;;8.00;99.90;;;;;;5121840;27;20272;-32
2023/12/13 04:35:24;;;;;;;;;;;8.00;99.90;;;;;;5135515;27;19935;-31
2023/12/13 04:37:51;;;;;;;;;;;8.00;99.90;;;;;;5116607;27;19988;-32
2023/12/13 04:40:19;;;;;;;;;;;7.90;99.90;;;;;;5117917;27;19948;-32
2023/12/13 04:42:46;;;;;;;;;;;7.90;99.90;;;;;;5111898;27;19941;-31
2023/12/13 04:45:12;;;;;;;;;;;7.90;99.90;;;;;;5135234;27;19979;-31
2023/12/13 04:47:39;;;;;;;;;;;7.90;99.90;;;;;;5113752;28;19991;-32
2023/12/13 04:50:06;;;;;;;;;;;7.90;99.90;;;;;;5130690;27;20041;-32
2023/12/13 04:52:33;;;;;;;;;;;7.90;99.90;;;;;;5131756;27;19947;-31
2023/12/13 04:55:00;;;;;;;;;;;7.90;99.90;;;;;;5127317;27;20061;-32
2023/12/13 04:57:28;;;;;;;;;;;7.90;99.90;;;;;;5102183;27;19934;-31
2023/12/13 04:59:54;;;;;;;;;;;7.90;99.90;;;;;;5106543;27;19939;-32
2023/12/13 05:02:21;;;;;;;;;;;7.80;99.90;;;;;;5115462;27;19940;-32
2023/12/13 05:04:48;;;;;;;;;;;7.90;99.90;;;;;;5129934;27;19984;-31
2023/12/13 05:07:14;;;;;;;;;;;7.90;99.90;;;;;;5111230;27;19940;-31
2023/12/13 05:09:41;;;;;;;;;;;7.90;99.90;;;;;;5115419;27;19989;-31
2023/12/13 05:12:07;;;;;;;;;;;7.90;99.90;;;;;;5113926;27;19977;-31
2023/12/13 05:14:35;;;;;;;;;;;7.80;99.90;;;;;;5132171;27;19980;-32
2023/12/13 05:17:03;;;;;;;;;;;7.80;99.90;;;;;;5128345;27;20468;-32
2023/12/13 05:19:29;;;;;;;;;;;7.80;99.90;;;;;;5129426;27;20387;-32
2023/12/13 05:21:56;;;;;;;;;;;7.80;99.90;;;;;;5107980;27;19967;-31
2023/12/13 05:24:22;;;;;;;;;;;7.70;99.90;;;;;;5110236;27;19951;-32
2023/12/13 05:26:49;;;;;;;;;;;7.80;99.90;;;;;;5108027;27;19979;-31
2023/12/13 05:29:16;;;;;;;;;;;7.70;99.90;;;;;;5116142;27;19953;-31
2023/12/13 05:31:44;;;;;;;;;;;7.70;99.90;;;;;;5116106;27;19993;-31
2023/12/13 05:34:10;;;;;;;;;;;7.70;99.90;;;;;;5099465;28;19938;-31
2023/12/13 05:36:37;;;;;;;;;;;7.70;99.90;;;;;;5115966;27;20005;-32
2023/12/13 05:39:04;;;;;;;;;;;7.70;99.90;;;;;;5096500;28;20377;-32
2023/12/13 05:41:30;;;;;;;;;;;7.70;99.90;;;;;;5097889;28;19948;-31
2023/12/13 05:43:57;;;;;;;;;;;7.70;99.90;;;;;;5106422;28;20402;-31
2023/12/13 05:46:23;;;;;;;;;;;7.70;99.90;;;;;;5125177;27;19941;-31
2023/12/13 05:48:51;;;;;;;;;;;7.70;99.90;;;;;;5116174;27;19949;-32
2023/12/13 05:51:18;;;;;;;;;;;7.70;99.90;;;;;;5115553;27;19944;-31
2023/12/13 05:53:45;;;;;;;;;;;7.70;99.90;;;;;;5121082;27;20479;-31
2023/12/13 05:56:12;;;;;;;;;;;7.70;99.90;;;;;;5101657;27;19944;-32
2023/12/13 05:58:39;;;;;;;;;;;7.70;99.90;;;;;;5111561;27;19944;-32
2023/12/13 06:01:06;;;;;;;;;;;7.70;99.90;;;;;;5131922;27;19941;-31
2023/12/13 06:03:33;;;;;;;;;;;7.70;99.90;;;;;;5113263;27;19940;-31
2023/12/13 06:06:01;;;;;;;;;;;7.70;99.90;;;;;;5115717;27;20000;-31
2023/12/13 06:08:28;;;;;;;;;;;7.70;99.90;;;;;;5132823;27;20484;-31
2023/12/13 06:10:54;;;;;;;;;;;7.70;99.90;;;;;;5106560;27;19959;-31
2023/12/13 06:13:21;;;;;;;;;;;7.70;99.90;;;;;;5123782;27;20049;-31
2023/12/13 06:15:48;;;;;;;;;;;7.70;99.90;;;;;;5119634;27;20456;-31
2023/12/13 06:18:15;;;;;;;;;;;7.70;99.90;;;;;;5114349;27;20062;-31
2023/12/13 06:20:41;;;;;;;;;;;7.70;99.90;;;;;;5114125;27;19934;-31
2023/12/13 06:23:09;;;;;;;;;;;7.70;99.90;;;;;;5126268;27;20045;-30
2023/12/13 06:25:36;;;;;;;;;;;7.70;99.90;;;;;;5109972;27;19937;-32
2023/12/13 06:28:03;;;;;;;;;;;7.80;99.90;;;;;;5113876;27;20382;-31
2023/12/13 06:30:29;;;;;;;;;;;7.80;99.90;;;;;;5114585;27;20455;-31
2023/12/13 06:32:56;;;;;;;;;;;7.80;99.90;;;;;;5133341;27;19940;-31
2023/12/13 06:35:22;;;;;;;;;;;7.80;99.90;;;;;;5114129;27;19939;-30
2023/12/13 06:37:49;;;;;;;;;;;7.80;99.90;;;;;;5115574;27;19991;-32
2023/12/13 06:40:18;;;;;;;;;;;7.80;99.90;;;;;;5133934;27;19940;-32
2023/12/13 06:42:44;;;;;;;;;;;7.70;99.90;;;;;;5133640;27;20443;-31
2023/12/13 06:45:11;;;;;;;;;;;7.80;99.90;;;;;;5115536;27;19989;-31
2023/12/13 06:47:38;;;;;;;;;;;7.80;99.90;;;;;;5115478;27;19961;-32
2023/12/13 06:50:05;;;;;;;;;;;7.80;99.90;;;;;;5115402;27;20009;-32
2023/12/13 06:52:32;;;;;;;;;;;7.80;99.90;;;;;;5115701;27;19993;-31
2023/12/13 06:54:58;;;;;;;;;;;7.80;99.90;;;;;;5134061;27;19944;-32
2023/12/13 06:57:26;;;;;;;;;;;7.80;99.90;;;;;;5132724;27;20000;-33
2023/12/13 06:59:53;;;;;;;;;;;7.80;99.90;;;;;;5132514;27;19959;-32
2023/12/13 07:02:20;;;;;;;;;;;7.80;99.90;;;;;;5133115;27;19928;-32
2023/12/13 07:04:47;;;;;;;;;;;7.90;99.90;;;;;;5115387;27;20272;-31
2023/12/13 07:07:15;;;;;;;;;;;7.80;99.90;;;;;;5114992;27;19970;-31
2023/12/13 07:09:41;;;;;;;;;;;7.80;99.90;;;;;;5114399;27;19966;-30
2023/12/13 07:12:08;;;;;;;;;;;7.80;99.90;;;;;;5115011;27;19946;-31
2023/12/13 07:14:36;;;;;;;;;;;7.80;99.90;;;;;;5115113;27;19938;-31
2023/12/13 07:17:03;;;;;;;;;;;7.80;99.90;;;;;;5114906;27;19964;-30
2023/12/13 07:19:30;;;;;;;;;;;7.80;99.90;;;;;;5115018;27;19943;-31
2023/12/13 07:21:57;;;;;;;;;;;7.80;99.90;;;;;;5109173;28;19941;-33
2023/12/13 07:24:23;;;;;;;;;;;7.80;99.90;;;;;;5112804;28;19936;-31
2023/12/13 07:26:50;;;;;;;;;;;7.80;99.90;;;;;;5111291;27;19939;-31
2023/12/13 07:29:17;;;;;;;;;;;7.80;99.90;;;;;;5113987;28;19952;-32
2023/12/13 07:31:45;;;;;;;;;;;7.80;99.90;;;;;;5114819;28;19996;-32
2023/12/13 07:34:11;;;;;;;;;;;7.80;99.90;;;;;;5120842;27;20002;-32
2023/12/13 07:36:40;;;;;;;;;;;7.80;99.90;;;;;;5139607;27;19967;-31
2023/12/13 07:39:07;;;;;;;;;;;7.90;99.90;;;;;;5119797;27;19951;-31
2023/12/13 07:41:33;;;;;;;;;;;7.80;99.90;;;;;;5121892;27;19943;-31
2023/12/13 07:44:00;;;;;;;;;;;7.90;99.90;;;;;;5121766;27;19941;-32
2023/12/13 07:46:27;;;;;;;;;;;7.90;99.90;;;;;;5121662;27;20378;-31
2023/12/13 07:48:57;;;;;;;;;;;7.90;99.90;;;;;;5139633;27;20001;-32
2023/12/13 07:51:24;;;;;;;;;;;7.90;99.90;;;;;;5140098;27;20299;-31
2023/12/13 07:53:50;;;;;;;;;;;7.90;99.90;;;;;;5129484;27;19940;-32
2023/12/13 07:56:17;;;;;;;;;;;7.90;99.90;;;;;;5123587;27;19943;-32
2023/12/13 07:58:44;;;;;;;;;;;7.90;99.90;;;;;;5121012;27;20387;-31
2023/12/13 08:01:10;;;;;;;;;;;7.90;99.90;;;;;;5121551;27;19979;-30
2023/12/13 08:03:37;;;;;;;;;;;7.90;99.90;;;;;;5121441;27;20204;-32
2023/12/13 08:06:11;;;;;;;;;;;7.90;99.90;;;;;;5120842;27;20340;-30
2023/12/13 08:08:39;;;;;;;;;;;7.90;99.90;;;;;;5114288;27;19949;-31
2023/12/13 08:11:06;;;;;;;;;;;7.90;99.90;;;;;;5138895;27;19984;-31
2023/12/13 08:13:33;;;;;;;;;;;7.90;99.90;;;;;;5139116;27;19957;-32
2023/12/13 08:15:59;;;;;;;;;;;7.80;99.90;;;;;;5121343;27;19993;-32
2023/12/13 08:18:26;;;;;;;;;;;7.90;99.90;;;;;;5121357;27;20111;-32
2023/12/13 08:20:53;;;;;;;;;;;7.80;99.90;;;;;;5121430;27;19962;-32
2023/12/13 08:23:21;;;;;;;;;;;7.90;99.90;;;;;;5121296;27;19967;-32
2023/12/13 08:25:47;;;;;;;;;;;7.90;99.90;;;;;;5119362;27;20024;-32
2023/12/13 08:28:14;;;;;;;;;;;7.90;99.90;;;;;;5118251;27;20032;-32
2023/12/13 08:30:41;;;;;;;;;;;7.90;99.90;;;;;;5120761;27;19959;-32
2023/12/13 08:33:07;;;;;;;;;;;7.90;99.90;;;;;;5120956;27;19944;-32
2023/12/13 08:35:34;;;;;;;;;;;7.90;99.90;;;;;;5134597;27;20379;-32
2023/12/13 08:38:01;;;;;;;;;;;7.90;99.90;;;;;;5101009;28;20454;-31
2023/12/13 08:40:30;;;;;;;;;;;7.90;99.90;;;;;;5100842;28;20033;-32
2023/12/13 08:42:56;;;;;;;;;;;7.90;99.90;;;;;;5100474;28;19965;-32
2023/12/13 08:45:23;;;;;;;;;;;7.90;99.90;;;;;;5113053;27;20385;-31
2023/12/13 08:47:50;;;;;;;;;;;7.90;99.90;;;;;;5117836;27;19994;-32
2023/12/13 08:50:16;;;;;;;;;;;7.90;99.90;;;;;;5117812;27;19957;-32
2023/12/13 08:52:43;;;;;;;;;;;7.90;99.90;;;;;;5135955;27;19990;-31
2023/12/13 08:55:10;;;;;;;;;;;7.90;99.90;;;;;;5135919;27;20354;-32
2023/12/13 08:57:38;;;;;;;;;;;8.00;99.90;;;;;;5117585;27;20014;-32
2023/12/13 09:00:06;;;;;;;;;;;8.00;99.90;;;;;;5135807;27;19944;-32
2023/12/13 09:02:33;;;;;;;;;;;8.00;99.90;;;;;;5117175;27;20027;-32
2023/12/13 09:05:00;;;;;;;;;;;8.00;99.90;;;;;;5135839;27;19949;-31
2023/12/13 09:07:27;;;;;;;;;;;8.00;99.90;;;;;;5117478;27;19923;-31
2023/12/13 09:09:53;;;;;;;;;;;8.00;99.90;;;;;;5117379;27;20000;-31
2023/12/13 09:12:20;;;;;;;;;;;8.00;99.90;;;;;;5117076;27;19943;-32
2023/12/13 09:14:48;;;;;;;;;;;8.00;99.90;;;;;;5102498;28;20418;-32
2023/12/13 09:17:15;;;;;;;;;;;8.00;99.90;;;;;;5096668;28;20365;-32
2023/12/13 09:19:41;;;;;;;;;;;8.10;99.90;;;;;;5115187;28;19943;-32
2023/12/13 09:22:08;;;;;;;;;;;8.00;99.90;;;;;;5101661;27;19936;-32
2023/12/13 09:24:35;;;;;;;;;;;8.10;99.90;;;;;;5117288;27;19993;-31
2023/12/13 09:27:01;;;;;;;;;;;8.00;99.90;;;;;;5116854;27;19939;-32
2023/12/13 09:29:28;;;;;;;;;;;8.10;99.90;;;;;;5135302;27;20304;-31
2023/12/13 09:31:58;;;;;;;;;;;8.10;99.90;;;;;;5114663;27;19923;-31
2023/12/13 09:34:24;;;;;;;;;;;8.10;99.90;;;;;;5096746;28;19984;-30
2023/12/13 09:36:51;;;;;;;;;;;8.10;99.90;;;;;;5096296;28;19989;-31
2023/12/13 09:39:18;;;;;;;;;;;8.10;99.90;;;;;;5114647;28;20350;-32
2023/12/13 09:41:52;;;;;;;;;;;8.10;99.90;;;;;;5096694;28;19992;-31
2023/12/13 09:44:19;;;;;;;;;;;8.20;99.90;;;;;;5096652;28;19954;-32
2023/12/13 09:46:46;;;;;;;;;;;8.10;99.90;;;;;;5114384;28;19944;-32
2023/12/13 09:49:14;;;;;;;;;;;8.20;99.90;;;;;;5096543;28;19960;-30
2023/12/13 09:51:41;;;;;;;;;;;8.20;99.90;;;;;;5114405;28;19950;-31
2023/12/13 09:54:08;;;;;;;;;;;8.20;99.90;;;;;;5115944;27;19938;-31
2023/12/13 09:56:34;;;;;;;;;;;8.20;99.90;;;;;;5134375;27;20311;-32
2023/12/13 09:59:01;;;;;;;;;;;8.20;99.90;;;;;;5134855;27;19979;-31
2023/12/13 10:01:27;;;;;;;;;;;8.20;99.90;;;;;;5134724;27;19990;-31
2023/12/13 10:03:54;;;;;;;;;;;8.20;99.90;;;;;;5099756;28;19924;-33
2023/12/13 10:06:22;;;;;;;;;;;8.20;99.90;;;;;;5096332;28;19983;-32
2023/12/13 10:08:53;;;;;;;;;;;8.40;99.90;;;;;;5109238;27;19943;-32
2023/12/13 10:11:19;;;;;;;;;;;8.30;99.90;;;;;;5111496;27;19940;-32
2023/12/13 10:13:46;;;;;;;;;;;8.30;99.90;;;;;;5114087;28;19966;-31
2023/12/13 10:16:13;;;;;;;;;;;8.30;99.90;;;;;;5113897;28;19980;-32
2023/12/13 10:18:40;;;;;;;;;;;8.30;99.90;;;;;;5107111;27;19938;-30
2023/12/13 10:21:07;;;;;;;;;;;8.40;99.90;;;;;;5116304;27;19947;-32
2023/12/13 10:23:35;;;;;;;;;;;8.40;99.90;;;;;;5134188;27;19941;-31
2023/12/13 10:26:02;;;;;;;;;;;8.40;99.90;;;;;;5134112;27;19946;-31
2023/12/13 10:28:29;;;;;;;;;;;8.40;99.90;;;;;;5117994;27;19937;-32
2023/12/13 10:30:56;;;;;;;;;;;8.40;99.90;;;;;;5115580;27;19965;-31
2023/12/13 10:33:22;;;;;;;;;;;8.50;99.90;;;;;;5106197;28;19936;-30
2023/12/13 10:35:49;;;;;;;;;;;8.50;99.90;;;;;;5097381;27;19940;-31
2023/12/13 10:38:16;;;;;;;;;;;8.50;99.90;;;;;;5115700;27;20451;-32
2023/12/13 10:40:44;;;;;;;;;;;8.50;99.90;;;;;;5116032;27;19944;-31
2023/12/13 10:43:11;;;;;;;;;;;8.50;99.90;;;;;;5115781;27;19984;-32
2023/12/13 10:45:38;;;;;;;;;;;8.50;99.90;;;;;;5134298;27;19985;-31
2023/12/13 10:48:07;;;;;;;;;;;8.60;99.90;;;;;;5095791;28;19993;-32
2023/12/13 10:50:34;;;;;;;;;;;8.60;99.90;;;;;;5095133;28;20298;-32
2023/12/13 10:53:03;;;;;;;;;;;8.60;99.90;;;;;;5113234;28;20029;-32
2023/12/13 10:55:29;;;;;;;;;;;8.60;99.90;;;;;;5095379;28;20383;-32
2023/12/13 10:57:57;;;;;;;;;;;8.70;99.90;;;;;;5112236;27;20382;-32
2023/12/13 11:00:26;;;;;;;;;;;8.60;99.90;;;;;;5133634;27;20380;-32
2023/12/13 11:02:53;;;;;;;;;;;8.60;99.90;;;;;;5115607;27;19939;-32
2023/12/13 11:05:19;;;;;;;;;;;8.70;99.90;;;;;;5133771;27;20332;-31
2023/12/13 11:07:46;;;;;;;;;;;8.70;99.90;;;;;;5099063;28;19944;-31
2023/12/13 11:10:13;;;;;;;;;;;8.70;99.90;;;;;;5124595;27;19997;-32
2023/12/13 11:12:47;;;;;;;;;;;8.70;99.90;;;;;;5115181;27;19940;-32
2023/12/13 11:15:15;;;;;;;;;;;8.70;99.90;;;;;;5115677;27;19938;-31
2023/12/13 11:17:44;;;;;;;;;;;8.70;99.90;;;;;;5115400;27;19937;-32
2023/12/13 11:20:10;;;;;;;;;;;8.70;99.90;;;;;;5106714;28;20290;-32
2023/12/13 11:22:37;;;;;;;;;;;8.70;99.90;;;;;;5094944;28;19991;-32
2023/12/13 11:25:06;;;;;;;;;;;8.70;99.90;;;;;;5112854;28;19993;-32
2023/12/13 11:27:32;;;;;;;;;;;8.80;99.90;;;;;;5109997;28;19941;-31
2023/12/13 11:30:00;;;;;;;;;;;8.70;99.90;;;;;;5115193;28;19966;-31
2023/12/13 11:32:34;;;;;;;;;;;8.80;99.90;;;;;;5115389;28;20031;-31
2023/12/13 11:35:00;;;;;;;;;;;8.80;99.90;;;;;;5115195;28;20293;-31
2023/12/13 11:37:29;;;;;;;;;;;8.80;99.90;;;;;;5115793;28;19941;-31
2023/12/13 11:39:56;;;;;;;;;;;8.80;99.90;;;;;;5112574;28;20288;-31
2023/12/13 11:42:23;;;;;;;;;;;8.80;99.90;;;;;;5129149;28;19939;-32
2023/12/13 11:44:50;;;;;;;;;;;8.80;99.90;;;;;;5114897;28;19940;-30
2023/12/13 11:47:17;;;;;;;;;;;8.80;99.90;;;;;;5115259;28;19945;-31
2023/12/13 11:49:45;;;;;;;;;;;8.80;99.90;;;;;;5114998;28;19972;-31
2023/12/13 11:52:11;;;;;;;;;;;8.80;99.90;;;;;;5114984;28;19995;-32
2023/12/13 11:54:39;;;;;;;;;;;8.90;99.90;;;;;;5114454;28;19941;-32
2023/12/13 11:57:12;;;;;;;;;;;8.90;99.90;;;;;;5114730;28;20044;-31
2023/12/13 11:59:39;;;;;;;;;;;8.80;99.90;;;;;;5114516;28;19947;-32
2023/12/13 12:02:06;;;;;;;;;;;8.90;99.90;;;;;;5114968;28;20000;-32
2023/12/13 12:04:32;;;;;;;;;;;8.90;99.90;;;;;;5101046;28;19938;-31
2023/12/13 12:07:01;;;;;;;;;;;9.00;99.90;;;;;;5112340;28;19993;-31
2023/12/13 12:09:27;;;;;;;;;;;9.00;99.90;;;;;;5112350;28;20021;-31
2023/12/13 12:11:54;;;;;;;;;;;9.00;99.90;;;;;;5094577;28;19963;-32
2023/12/13 12:14:21;;;;;;;;;;;8.90;99.90;;;;;;5123547;28;20010;-31
2023/12/13 12:16:47;;;;;;;;;;;9.00;99.90;;;;;;5114971;28;19969;-31
2023/12/13 12:19:16;;;;;;;;;;;9.00;99.90;;;;;;5115454;27;20299;-32
2023/12/13 12:21:42;;;;;;;;;;;9.00;99.90;;;;;;5137001;27;19939;-32
2023/12/13 12:24:11;;;;;;;;;;;9.10;99.90;;;;;;5118302;27;20010;-32
2023/12/13 12:26:38;;;;;;;;;;;9.00;99.90;;;;;;5136546;27;19959;-32
2023/12/13 12:29:04;;;;;;;;;;;9.00;99.90;;;;;;5135754;27;19996;-32
2023/12/13 12:31:31;;;;;;;;;;;9.00;99.90;;;;;;5136564;27;19966;-31
2023/12/13 12:33:58;;;;;;;;;;;9.10;99.90;;;;;;5127747;27;19949;-32
2023/12/13 12:36:25;;;;;;;;;;;9.10;99.90;;;;;;5118654;27;19939;-32
2023/12/13 12:38:51;;;;;;;;;;;9.10;99.90;;;;;;5118071;27;19990;-31
2023/12/13 12:41:22;;;;;;;;;;;9.10;99.90;;;;;;5118183;27;19995;-31
2023/12/13 12:43:49;;;;;;;;;;;9.10;99.90;;;;;;5110943;28;20036;-31
2023/12/13 12:46:16;;;;;;;;;;;9.10;99.90;;;;;;5097476;28;19996;-32
2023/12/13 12:48:43;;;;;;;;;;;9.00;99.90;;;;;;5097927;28;19944;-31
2023/12/13 12:51:10;;;;;;;;;;;9.10;99.90;;;;;;5097510;28;19961;-32
2023/12/13 12:53:36;;;;;;;;;;;9.10;99.90;;;;;;5116841;27;19934;-31
2023/12/13 12:56:03;;;;;;;;;;;9.00;99.90;;;;;;5117894;27;19938;-31
2023/12/13 12:58:33;;;;;;;;;;;9.10;99.90;;;;;;5118077;27;19944;-32
2023/12/13 13:00:59;;;;;;;;;;;9.00;99.90;;;;;;5135932;27;19961;-31
2023/12/13 13:03:26;;;;;;;;;;;9.10;99.90;;;;;;5133017;27;20437;-31
2023/12/13 13:05:53;;;;;;;;;;;9.00;99.90;;;;;;5097288;28;19945;-32
2023/12/13 13:08:19;;;;;;;;;;;9.00;99.90;;;;;;5097206;28;20002;-32
2023/12/13 13:10:47;;;;;;;;;;;9.00;99.90;;;;;;5115217;28;20409;-32
2023/12/13 13:13:13;;;;;;;;;;;9.00;99.90;;;;;;5115178;28;20007;-31
2023/12/13 13:15:42;;;;;;;;;;;9.00;99.90;;;;;;5135270;27;19937;-30
2023/12/13 13:18:08;;;;;;;;;;;9.00;99.90;;;;;;5135736;27;19992;-32
2023/12/13 13:20:38;;;;;;;;;;;9.10;99.90;;;;;;5117546;27;19940;-31
2023/12/13 13:23:06;;;;;;;;;;;9.10;99.90;;;;;;5135438;27;20430;-31
2023/12/13 13:25:33;;;;;;;;;;;9.10;99.90;;;;;;5118520;27;19940;-31
2023/12/13 13:28:00;;;;;;;;;;;9.10;99.90;;;;;;5117422;27;19983;-32
2023/12/13 13:30:26;;;;;;;;;;;9.10;99.90;;;;;;5116280;28;19997;-32
2023/12/13 13:32:54;;;;;;;;;;;9.10;99.90;;;;;;5117382;27;20279;-32
2023/12/13 13:35:21;;;;;;;;;;;9.10;99.90;;;;;;5110604;27;20402;-32
2023/12/13 13:37:48;;;;;;;;;;;9.10;99.90;;;;;;5117050;27;19939;-32
2023/12/13 13:40:15;;;;;;;;;;;9.10;99.90;;;;;;5135022;27;19942;-33
2023/12/13 13:42:42;;;;;;;;;;;9.10;99.90;;;;;;5115192;27;19945;-32
2023/12/13 13:45:09;;;;;;;;;;;9.10;99.90;;;;;;5117072;27;20358;-32
2023/12/13 13:47:35;;;;;;;;;;;9.10;99.90;;;;;;5135091;27;19981;-31
2023/12/13 13:50:04;;;;;;;;;;;9.10;99.90;;;;;;5113603;27;19949;-31
2023/12/13 13:52:30;;;;;;;;;;;9.10;99.90;;;;;;5132846;27;19940;-33
2023/12/13 13:54:57;;;;;;;;;;;9.10;99.90;;;;;;5114696;28;20304;-31
2023/12/13 13:57:24;;;;;;;;;;;9.20;99.90;;;;;;5121815;27;19947;-32
2023/12/13 13:59:50;;;;;;;;;;;9.20;99.90;;;;;;5134910;27;20332;-32
2023/12/13 14:02:19;;;;;;;;;;;9.20;99.90;;;;;;5134804;27;19942;-32
2023/12/13 14:04:46;;;;;;;;;;;9.20;99.90;;;;;;5134769;27;20000;-33
2023/12/13 14:07:14;;;;;;;;;;;9.20;99.90;;;;;;5115825;27;19942;-32
2023/12/13 14:09:41;;;;;;;;;;;9.10;99.90;;;;;;5134780;27;19946;-31
2023/12/13 14:12:08;;;;;;;;;;;9.20;99.90;;;;;;5134615;27;20325;-32
2023/12/13 14:14:34;;;;;;;;;;;9.10;99.90;;;;;;5115887;27;19966;-33
2023/12/13 14:17:02;;;;;;;;;;;9.10;99.90;;;;;;5114819;27;20041;-32
2023/12/13 14:19:28;;;;;;;;;;;9.10;99.90;;;;;;5116446;27;20363;-32
2023/12/13 14:21:55;;;;;;;;;;;9.10;99.90;;;;;;5116258;27;19940;-31
2023/12/13 14:24:23;;;;;;;;;;;9.10;99.90;;;;;;5134672;27;19972;-31
2023/12/13 14:26:50;;;;;;;;;;;9.10;99.90;;;;;;5105853;28;19968;-31
2023/12/13 14:29:16;;;;;;;;;;;9.10;99.90;;;;;;5113942;27;19992;-32